sensor_id;sensor_type;location;lat;lon;timestamp;pressure;altitude;pressure_sealevel;temperature;humidity
7990;BME280;4040;42.848;23.034;2022-08-14T00:03:42;94445.50;;;16.46;100.00
7990;BME280;4040;42.848;23.034;2022-08-14T00:13:54;94419.00;;;16.59;100.00
7990;BME280;4040;42.848;23.034;2022-08-14T00:19:44;94430.38;;;16.75;100.00
7990;BME280;4040;42.848;23.034;2022-08-14T00:25:33;94427.09;;;16.98;100.00
7990;BME280;4040;42.848;23.034;2022-08-14T00:31:23;94427.69;;;17.02;100.00
7990;BME280;4040;42.848;23.034;2022-08-14T00:37:12;94427.09;;;16.98;100.00
7990;BME280;4040;42.848;23.034;2022-08-14T00:43:01;94422.56;;;16.95;100.00
7990;BME280;4040;42.848;23.034;2022-08-14T00:48:51;94413.91;;;16.79;100.00
7990;BME280;4040;42.848;23.034;2022-08-14T00:54:41;94408.84;;;16.50;100.00
7990;BME280;4040;42.848;23.034;2022-08-14T01:00:30;94405.78;;;16.39;100.00
7990;BME280;4040;42.848;23.034;2022-08-14T01:06:22;94403.06;;;16.39;100.00
7990;BME280;4040;42.848;23.034;2022-08-14T01:16:33;94390.78;;;16.74;100.00
7990;BME280;4040;42.848;23.034;2022-08-14T01:22:24;94384.53;;;16.56;100.00
7990;BME280;4040;42.848;23.034;2022-08-14T01:28:12;94389.03;;;16.41;100.00
7990;BME280;4040;42.848;23.034;2022-08-14T01:34:04;94374.94;;;16.33;100.00
7990;BME280;4040;42.848;23.034;2022-08-14T01:39:54;94370.84;;;16.29;100.00
7990;BME280;4040;42.848;23.034;2022-08-14T01:45:43;94371.66;;;16.38;100.00
7990;BME280;4040;42.848;23.034;2022-08-14T01:51:35;94371.59;;;16.29;100.00
7990;BME280;4040;42.848;23.034;2022-08-14T01:57:26;94367.06;;;16.26;100.00
7990;BME280;4040;42.848;23.034;2022-08-14T02:03:15;94366.16;;;16.29;100.00
7990;BME280;4040;42.848;23.034;2022-08-14T02:09:05;94367.06;;;16.26;100.00
7990;BME280;4040;42.848;23.034;2022-08-14T02:19:18;94360.03;;;16.47;100.00
7990;BME280;4040;42.848;23.034;2022-08-14T02:25:08;94363.72;;;16.31;100.00
7990;BME280;4040;42.848;23.034;2022-08-14T02:30:58;94356.44;;;16.19;100.00
7990;BME280;4040;42.848;23.034;2022-08-14T02:36:50;94366.41;;;16.13;100.00
7990;BME280;4040;42.848;23.034;2022-08-14T02:42:40;94364.28;;;16.17;100.00
7990;BME280;4040;42.848;23.034;2022-08-14T02:48:29;94354.31;;;16.14;100.00
7990;BME280;4040;42.848;23.034;2022-08-14T02:54:24;94363.69;;;16.13;100.00
7990;BME280;4040;42.848;23.034;2022-08-14T03:00:13;94362.31;;;16.09;100.00
7990;BME280;4040;42.848;23.034;2022-08-14T03:06:02;94364.56;;;16.10;100.00
7990;BME280;4040;42.848;23.034;2022-08-14T03:11:53;94366.09;;;16.11;100.00
7990;BME280;4040;42.848;23.034;2022-08-14T03:22:03;94366.78;;;16.33;100.00
7990;BME280;4040;42.848;23.034;2022-08-14T03:27:54;94357.50;;;16.52;100.00
7990;BME280;4040;42.848;23.034;2022-08-14T03:33:42;94364.25;;;16.39;100.00
7990;BME280;4040;42.848;23.034;2022-08-14T03:39:31;94361.06;;;16.40;100.00
7990;BME280;4040;42.848;23.034;2022-08-14T03:45:21;94368.97;;;16.47;100.00
7990;BME280;4040;42.848;23.034;2022-08-14T03:51:11;94384.16;;;16.75;100.00
7990;BME280;4040;42.848;23.034;2022-08-14T03:57:00;94377.78;;;16.78;100.00
7990;BME280;4040;42.848;23.034;2022-08-14T04:02:51;94374.19;;;16.99;100.00
7990;BME280;4040;42.848;23.034;2022-08-14T04:08:40;94374.22;;;17.17;100.00
7990;BME280;4040;42.848;23.034;2022-08-14T04:14:29;94371.50;;;17.26;100.00
7990;BME280;4040;42.848;23.034;2022-08-14T04:24:40;94361.81;;;17.34;100.00
7990;BME280;4040;42.848;23.034;2022-08-14T04:30:31;94376.66;;;17.51;100.00
7990;BME280;4040;42.848;23.034;2022-08-14T04:36:25;94377.88;;;17.41;100.00
7990;BME280;4040;42.848;23.034;2022-08-14T04:42:15;94382.09;;;17.69;100.00
7990;BME280;4040;42.848;23.034;2022-08-14T04:48:21;94386.91;;;17.56;100.00
7990;BME280;4040;42.848;23.034;2022-08-14T04:54:12;94392.22;;;17.51;100.00
7990;BME280;4040;42.848;23.034;2022-08-14T05:00:04;94400.81;;;17.85;100.00
7990;BME280;4040;42.848;23.034;2022-08-14T05:05:55;94411.41;;;17.83;100.00
7990;BME280;4040;42.848;23.034;2022-08-14T05:11:44;94406.31;;;17.58;100.00
7990;BME280;4040;42.848;23.034;2022-08-14T05:17:41;94408.09;;;17.79;100.00
7990;BME280;4040;42.848;23.034;2022-08-14T05:20:09;94406.25;;;17.85;100.00
7990;BME280;4040;42.848;23.034;2022-08-14T05:25:59;94406.66;;;18.10;100.00
7990;BME280;4040;42.848;23.034;2022-08-14T05:31:48;94405.91;;;18.10;100.00
7990;BME280;4040;42.848;23.034;2022-08-14T05:37:38;94398.63;;;18.16;100.00
7990;BME280;4040;42.848;23.034;2022-08-14T05:43:28;94393.78;;;18.20;100.00
7990;BME280;4040;42.848;23.034;2022-08-14T05:49:17;94387.69;;;18.25;100.00
7990;BME280;4040;42.848;23.034;2022-08-14T05:55:09;94379.72;;;18.54;100.00
7990;BME280;4040;42.848;23.034;2022-08-14T06:00:58;94370.28;;;18.87;100.00
7990;BME280;4040;42.848;23.034;2022-08-14T06:06:47;94369.97;;;19.18;100.00
7990;BME280;4040;42.848;23.034;2022-08-14T06:12:37;94371.28;;;18.99;100.00
7990;BME280;4040;42.848;23.034;2022-08-14T06:18:26;94381.47;;;19.13;100.00
7990;BME280;4040;42.848;23.034;2022-08-14T06:24:15;94391.25;;;19.05;100.00
7990;BME280;4040;42.848;23.034;2022-08-14T06:30:10;94393.69;;;19.03;100.00
7990;BME280;4040;42.848;23.034;2022-08-14T06:35:59;94392.47;;;18.80;100.00
7990;BME280;4040;42.848;23.034;2022-08-14T06:41:47;94403.13;;;18.19;100.00
7990;BME280;4040;42.848;23.034;2022-08-14T06:47:40;94419.56;;;18.01;100.00
7990;BME280;4040;42.848;23.034;2022-08-14T06:53:29;94414.81;;;18.19;100.00
7990;BME280;4040;42.848;23.034;2022-08-14T06:59:17;94408.59;;;18.19;100.00
7990;BME280;4040;42.848;23.034;2022-08-14T07:05:08;94425.91;;;17.98;100.00
7990;BME280;4040;42.848;23.034;2022-08-14T07:11:14;94420.94;;;17.88;100.00
7990;BME280;4040;42.848;23.034;2022-08-14T07:17:05;94427.00;;;17.83;100.00
7990;BME280;4040;42.848;23.034;2022-08-14T07:27:16;94426.56;;;17.66;100.00
7990;BME280;4040;42.848;23.034;2022-08-14T07:33:05;94426.53;;;17.84;100.00
7990;BME280;4040;42.848;23.034;2022-08-14T07:38:54;94432.00;;;17.75;100.00
7990;BME280;4040;42.848;23.034;2022-08-14T07:44:45;94442.59;;;17.55;100.00
7990;BME280;4040;42.848;23.034;2022-08-14T07:50:33;94432.91;;;17.81;100.00
7990;BME280;4040;42.848;23.034;2022-08-14T07:56:22;94447.69;;;18.07;100.00
7990;BME280;4040;42.848;23.034;2022-08-14T08:02:13;94454.78;;;18.13;100.00
7990;BME280;4040;42.848;23.034;2022-08-14T08:08:02;94444.94;;;18.34;100.00
7990;BME280;4040;42.848;23.034;2022-08-14T08:13:52;94436.44;;;18.41;100.00
7990;BME280;4040;42.848;23.034;2022-08-14T08:19:44;94436.41;;;18.82;100.00
7990;BME280;4040;42.848;23.034;2022-08-14T08:30:03;94416.47;;;20.14;100.00
7990;BME280;4040;42.848;23.034;2022-08-14T08:35:57;94408.22;;;19.85;100.00
7990;BME280;4040;42.848;23.034;2022-08-14T08:41:46;94408.31;;;19.76;100.00
7990;BME280;4040;42.848;23.034;2022-08-14T08:47:39;94393.53;;;19.68;100.00
7990;BME280;4040;42.848;23.034;2022-08-14T08:53:33;94396.50;;;19.55;100.00
7990;BME280;4040;42.848;23.034;2022-08-14T08:59:23;94399.00;;;19.82;100.00
7990;BME280;4040;42.848;23.034;2022-08-14T09:05:12;94391.31;;;20.10;100.00
7990;BME280;4040;42.848;23.034;2022-08-14T09:11:06;94396.06;;;21.07;100.00
7990;BME280;4040;42.848;23.034;2022-08-14T09:17:15;94376.66;;;21.70;100.00
7990;BME280;4040;42.848;23.034;2022-08-14T09:23:05;94376.78;;;21.61;100.00
7990;BME280;4040;42.848;23.034;2022-08-14T09:25:33;94364.72;;;21.73;100.00
7990;BME280;4040;42.848;23.034;2022-08-14T09:31:25;94361.19;;;22.18;100.00
7990;BME280;4040;42.848;23.034;2022-08-14T09:37:24;94364.56;;;22.64;100.00
7990;BME280;4040;42.848;23.034;2022-08-14T09:43:30;94348.50;;;25.50;100.00
7990;BME280;4040;42.848;23.034;2022-08-14T09:49:31;94336.59;;;25.09;100.00
7990;BME280;4040;42.848;23.034;2022-08-14T09:55:21;94330.50;;;25.38;100.00
7990;BME280;4040;42.848;23.034;2022-08-14T10:01:11;94327.00;;;25.83;100.00
7990;BME280;4040;42.848;23.034;2022-08-14T10:07:02;94320.06;;;26.12;100.00
7990;BME280;4040;42.848;23.034;2022-08-14T10:12:51;94309.41;;;27.09;100.00
7990;BME280;4040;42.848;23.034;2022-08-14T10:18:41;94317.38;;;28.92;77.97
7990;BME280;4040;42.848;23.034;2022-08-14T10:24:36;94300.97;;;29.20;71.74
7990;BME280;4040;42.848;23.034;2022-08-14T10:30:32;94305.38;;;28.08;71.28
7990;BME280;4040;42.848;23.034;2022-08-14T10:36:26;94300.06;;;26.64;73.04
7990;BME280;4040;42.848;23.034;2022-08-14T10:42:20;94297.53;;;27.14;85.73
7990;BME280;4040;42.848;23.034;2022-08-14T10:48:13;94273.03;;;29.05;72.42
7990;BME280;4040;42.848;23.034;2022-08-14T10:54:06;94277.03;;;28.65;67.07
7990;BME280;4040;42.848;23.034;2022-08-14T10:59:59;94267.88;;;27.76;70.39
7990;BME280;4040;42.848;23.034;2022-08-14T11:05:50;94227.06;;;26.31;71.44
7990;BME280;4040;42.848;23.034;2022-08-14T11:11:42;94247.88;;;25.67;85.38
7990;BME280;4040;42.848;23.034;2022-08-14T11:17:32;94237.03;;;26.10;91.96
7990;BME280;4040;42.848;23.034;2022-08-14T11:23:26;94236.66;;;25.95;83.07
7990;BME280;4040;42.848;23.034;2022-08-14T11:29:15;94232.38;;;25.59;95.25
7990;BME280;4040;42.848;23.034;2022-08-14T11:35:10;94236.75;;;24.81;100.00
7990;BME280;4040;42.848;23.034;2022-08-14T11:41:02;94230.00;;;24.76;92.31
7990;BME280;4040;42.848;23.034;2022-08-14T11:46:51;94227.78;;;25.32;85.24
7990;BME280;4040;42.848;23.034;2022-08-14T11:52:41;94227.56;;;25.65;83.62
7990;BME280;4040;42.848;23.034;2022-08-14T11:58:32;94244.63;;;26.04;80.81
7990;BME280;4040;42.848;23.034;2022-08-14T12:04:21;94245.44;;;26.23;80.25
7990;BME280;4040;42.848;23.034;2022-08-14T12:10:16;94239.69;;;26.21;83.47
7990;BME280;4040;42.848;23.034;2022-08-14T12:16:07;94224.88;;;26.24;79.57
7990;BME280;4040;42.848;23.034;2022-08-14T12:21:57;94225.75;;;26.08;91.67
7990;BME280;4040;42.848;23.034;2022-08-14T12:32:00;94220.66;;;26.70;74.34
7990;BME280;4040;42.848;23.034;2022-08-14T12:37:53;94212.34;;;26.46;75.24
7990;BME280;4040;42.848;23.034;2022-08-14T12:43:47;94205.44;;;26.35;74.41
7990;BME280;4040;42.848;23.034;2022-08-14T12:49:47;94198.50;;;26.23;78.45
7990;BME280;4040;42.848;23.034;2022-08-14T12:55:42;94195.34;;;25.84;74.40
7990;BME280;4040;42.848;23.034;2022-08-14T13:01:32;94193.97;;;26.25;74.33
7990;BME280;4040;42.848;23.034;2022-08-14T13:07:25;94195.28;;;26.19;76.39
7990;BME280;4040;42.848;23.034;2022-08-14T13:13:15;94191.03;;;26.41;75.69
7990;BME280;4040;42.848;23.034;2022-08-14T13:19:06;94189.91;;;26.32;73.86
7990;BME280;4040;42.848;23.034;2022-08-14T13:25:02;94181.88;;;26.34;73.09
7990;BME280;4040;42.848;23.034;2022-08-14T13:35:16;94171.94;;;26.20;78.04
7990;BME280;4040;42.848;23.034;2022-08-14T13:41:06;94169.88;;;26.49;71.38
7990;BME280;4040;42.848;23.034;2022-08-14T13:46:57;94156.19;;;26.15;75.22
7990;BME280;4040;42.848;23.034;2022-08-14T13:52:47;94156.31;;;25.69;70.33
7990;BME280;4040;42.848;23.034;2022-08-14T13:58:43;94149.91;;;25.20;75.28
7990;BME280;4040;42.848;23.034;2022-08-14T14:04:38;94146.72;;;25.46;74.73
7990;BME280;4040;42.848;23.034;2022-08-14T14:10:27;94150.06;;;25.68;66.85
7990;BME280;4040;42.848;23.034;2022-08-14T14:16:17;94153.41;;;25.91;68.67
7990;BME280;4040;42.848;23.034;2022-08-14T14:22:06;94148.25;;;26.30;63.39
7990;BME280;4040;42.848;23.034;2022-08-14T14:27:56;94146.28;;;26.48;66.61
7990;BME280;4040;42.848;23.034;2022-08-14T14:38:14;94122.09;;;26.12;64.78
7990;BME280;4040;42.848;23.034;2022-08-14T14:44:04;94125.25;;;25.98;65.74
7990;BME280;4040;42.848;23.034;2022-08-14T14:49:54;94125.38;;;25.81;70.22
7990;BME280;4040;42.848;23.034;2022-08-14T14:55:46;94127.91;;;25.79;68.16
7990;BME280;4040;42.848;23.034;2022-08-14T15:01:36;94134.34;;;25.58;69.66
7990;BME280;4040;42.848;23.034;2022-08-14T15:07:25;94138.31;;;25.33;70.21
7990;BME280;4040;42.848;23.034;2022-08-14T15:13:15;94123.69;;;25.03;74.00
7990;BME280;4040;42.848;23.034;2022-08-14T15:19:04;94131.81;;;24.90;75.62
7990;BME280;4040;42.848;23.034;2022-08-14T15:24:53;94137.91;;;24.72;75.99
7990;BME280;4040;42.848;23.034;2022-08-14T15:30:45;94137.03;;;24.31;73.97
7990;BME280;4040;42.848;23.034;2022-08-14T15:40:56;94138.13;;;23.73;80.79
7990;BME280;4040;42.848;23.034;2022-08-14T15:46:47;94132.38;;;23.27;85.25
7990;BME280;4040;42.848;23.034;2022-08-14T15:52:36;94170.09;;;23.21;83.90
7990;BME280;4040;42.848;23.034;2022-08-14T15:58:25;94174.97;;;22.84;100.00
7990;BME280;4040;42.848;23.034;2022-08-14T16:04:15;94171.34;;;22.09;100.00
7990;BME280;4040;42.848;23.034;2022-08-14T16:10:09;94178.50;;;21.95;100.00
7990;BME280;4040;42.848;23.034;2022-08-14T16:15:58;94178.88;;;21.77;100.00
7990;BME280;4040;42.848;23.034;2022-08-14T16:21:49;94173.72;;;21.59;100.00
7990;BME280;4040;42.848;23.034;2022-08-14T16:27:41;94185.03;;;21.41;100.00
7990;BME280;4040;42.848;23.034;2022-08-14T16:33:29;94189.69;;;21.04;100.00
7990;BME280;4040;42.848;23.034;2022-08-14T16:43:42;94198.38;;;21.03;100.00
7990;BME280;4040;42.848;23.034;2022-08-14T16:49:32;94207.59;;;21.05;100.00
7990;BME280;4040;42.848;23.034;2022-08-14T16:55:22;94219.09;;;21.09;100.00
7990;BME280;4040;42.848;23.034;2022-08-14T17:01:16;94207.50;;;20.94;100.00
7990;BME280;4040;42.848;23.034;2022-08-14T17:07:09;94215.09;;;20.85;100.00
7990;BME280;4040;42.848;23.034;2022-08-14T17:13:15;94207.22;;;20.73;100.00
7990;BME280;4040;42.848;23.034;2022-08-14T17:19:07;94208.16;;;20.69;100.00
7990;BME280;4040;42.848;23.034;2022-08-14T17:24:56;94209.75;;;20.56;100.00
7990;BME280;4040;42.848;23.034;2022-08-14T17:30:48;94220.91;;;20.53;100.00
7990;BME280;4040;42.848;23.034;2022-08-14T17:36:39;94234.03;;;20.29;100.00
7990;BME280;4040;42.848;23.034;2022-08-14T17:46:53;94233.91;;;19.89;100.00
7990;BME280;4040;42.848;23.034;2022-08-14T17:52:46;94248.81;;;19.88;100.00
7990;BME280;4040;42.848;23.034;2022-08-14T17:58:34;94252.47;;;19.85;100.00
7990;BME280;4040;42.848;23.034;2022-08-14T18:04:23;94241.81;;;19.87;100.00
7990;BME280;4040;42.848;23.034;2022-08-14T18:10:15;94237.69;;;19.77;100.00
7990;BME280;4040;42.848;23.034;2022-08-14T18:16:05;94249.19;;;19.23;100.00
7990;BME280;4040;42.848;23.034;2022-08-14T18:21:57;94265.56;;;19.23;100.00
7990;BME280;4040;42.848;23.034;2022-08-14T18:27:48;94271.00;;;19.23;100.00
7990;BME280;4040;42.848;23.034;2022-08-14T18:33:43;94280.72;;;19.24;100.00
7990;BME280;4040;42.848;23.034;2022-08-14T18:39:39;94282.59;;;19.18;100.00
7990;BME280;4040;42.848;23.034;2022-08-14T18:46:03;94295.66;;;19.14;100.00
7990;BME280;4040;42.848;23.034;2022-08-14T18:52:12;94298.25;;;19.08;100.00
7990;BME280;4040;42.848;23.034;2022-08-14T18:58:11;94279.56;;;18.78;100.00
7990;BME280;4040;42.848;23.034;2022-08-14T19:04:02;94301.72;;;18.71;100.00
7990;BME280;4040;42.848;23.034;2022-08-14T19:09:52;94312.00;;;18.76;100.00
7990;BME280;4040;42.848;23.034;2022-08-14T19:15:43;94308.81;;;18.54;100.00
7990;BME280;4040;42.848;23.034;2022-08-14T19:21:36;94305.41;;;18.35;100.00
7990;BME280;4040;42.848;23.034;2022-08-14T19:27:25;94303.91;;;18.34;100.00
7990;BME280;4040;42.848;23.034;2022-08-14T19:33:46;94315.19;;;18.18;100.00
7990;BME280;4040;42.848;23.034;2022-08-14T19:39:46;94326.50;;;18.26;100.00
7990;BME280;4040;42.848;23.034;2022-08-14T19:45:36;94327.72;;;18.25;100.00
7990;BME280;4040;42.848;23.034;2022-08-14T19:51:25;94334.66;;;18.35;100.00
7990;BME280;4040;42.848;23.034;2022-08-14T19:57:35;94323.94;;;18.31;100.00
7990;BME280;4040;42.848;23.034;2022-08-14T20:03:24;94331.94;;;18.26;100.00
7990;BME280;4040;42.848;23.034;2022-08-14T20:09:15;94332.88;;;18.23;100.00
7990;BME280;4040;42.848;23.034;2022-08-14T20:15:08;94321.66;;;18.30;100.00
7990;BME280;4040;42.848;23.034;2022-08-14T20:21:00;94314.78;;;18.43;100.00
7990;BME280;4040;42.848;23.034;2022-08-14T20:27:20;94323.56;;;18.47;100.00
7990;BME280;4040;42.848;23.034;2022-08-14T20:33:11;94321.47;;;18.01;100.00
7990;BME280;4040;42.848;23.034;2022-08-14T20:39:00;94326.03;;;17.86;100.00
7990;BME280;4040;42.848;23.034;2022-08-14T20:44:50;94335.44;;;17.85;100.00
7990;BME280;4040;42.848;23.034;2022-08-14T20:51:18;94332.28;;;18.19;100.00
7990;BME280;4040;42.848;23.034;2022-08-14T20:57:08;94333.16;;;18.34;100.00
7990;BME280;4040;42.848;23.034;2022-08-14T21:03:32;94316.03;;;18.33;100.00
7990;BME280;4040;42.848;23.034;2022-08-14T21:09:23;94318.03;;;18.24;100.00
7990;BME280;4040;42.848;23.034;2022-08-14T21:15:13;94317.09;;;18.27;100.00
7990;BME280;4040;42.848;23.034;2022-08-14T21:21:09;94314.81;;;17.93;100.00
7990;BME280;4040;42.848;23.034;2022-08-14T21:27:01;94329.44;;;17.63;100.00
7990;BME280;4040;42.848;23.034;2022-08-14T21:32:50;94331.88;;;17.43;100.00
7990;BME280;4040;42.848;23.034;2022-08-14T21:38:41;94341.84;;;17.46;100.00
7990;BME280;4040;42.848;23.034;2022-08-14T21:44:31;94339.28;;;17.52;100.00
7990;BME280;4040;42.848;23.034;2022-08-14T21:50:20;94342.19;;;17.39;100.00
7990;BME280;4040;42.848;23.034;2022-08-14T21:56:11;94350.31;;;17.12;100.00
7990;BME280;4040;42.848;23.034;2022-08-14T22:08:35;94347.91;;;16.96;100.00
7990;BME280;4040;42.848;23.034;2022-08-14T22:14:24;94352.72;;;16.92;100.00
7990;BME280;4040;42.848;23.034;2022-08-14T22:20:14;94345.19;;;16.87;100.00
7990;BME280;4040;42.848;23.034;2022-08-14T22:26:05;94342.31;;;16.82;100.00
7990;BME280;4040;42.848;23.034;2022-08-14T22:31:54;94330.97;;;16.74;100.00
7990;BME280;4040;42.848;23.034;2022-08-14T22:37:43;94335.19;;;16.66;100.00
7990;BME280;4040;42.848;23.034;2022-08-14T22:43:33;94341.84;;;16.74;100.00
7990;BME280;4040;42.848;23.034;2022-08-14T22:49:23;94356.59;;;16.55;100.00
7990;BME280;4040;42.848;23.034;2022-08-14T22:55:12;94367.31;;;16.50;100.00
7990;BME280;4040;42.848;23.034;2022-08-14T23:01:04;94348.44;;;16.46;100.00
7990;BME280;4040;42.848;23.034;2022-08-14T23:07:24;94353.88;;;16.46;100.00
7990;BME280;4040;42.848;23.034;2022-08-14T23:13:13;94343.66;;;16.29;100.00
7990;BME280;4040;42.848;23.034;2022-08-14T23:19:05;94344.16;;;16.36;100.00
7990;BME280;4040;42.848;23.034;2022-08-14T23:24:57;94361.44;;;16.60;100.00
7990;BME280;4040;42.848;23.034;2022-08-14T23:30:46;94362.19;;;16.52;100.00
7990;BME280;4040;42.848;23.034;2022-08-14T23:36:38;94352.00;;;16.34;100.00
7990;BME280;4040;42.848;23.034;2022-08-14T23:42:27;94344.78;;;16.40;100.00
7990;BME280;4040;42.848;23.034;2022-08-14T23:48:18;94340.25;;;16.37;100.00
7990;BME280;4040;42.848;23.034;2022-08-14T23:54:08;94348.41;;;16.37;100.00
7990;BME280;4040;42.848;23.034;2022-08-14T23:59:59;94343.25;;;16.39;100.00
